Time;durP1;ratioP1;P1;durP2;ratioP2;P2;SDS_P1;SDS_P2;PMS_P1;PMS_P2;Temp;Humidity;BMP_temperature;BMP_pressure;BME280_temperature;BME280_humidity;BME280_pressure;Samples;Min_cycle;Max_cycle;Signal;HPM_P1;HPM_P2
2022/03/04 00:01:54;;;;;;;;;;;;;;;5.06;41.14;102140.66;5061779;28;20360;-69
2022/03/04 00:04:20;;;;;;;;;;;;;;;4.94;41.13;102141.38;5064653;28;20019;-68
2022/03/04 00:06:45;;;;;;;;;;;;;;;4.98;40.93;102131.88;5061837;28;19928;-67
2022/03/04 00:09:11;;;;;;;;;;;;;;;5.01;41.35;102139.53;5063439;28;19925;-67
2022/03/04 00:11:36;;;;;;;;;;;;;;;4.94;41.49;102139.53;5062464;28;20375;-67
2022/03/04 00:14:01;;;;;;;;;;;;;;;5.15;41.14;102144.84;5062884;28;20034;-68
2022/03/04 00:16:26;;;;;;;;;;;;;;;5.06;40.61;102142.50;5073106;28;19921;-68
2022/03/04 00:19:13;;;;;;;;;;;;;;;5.00;40.78;102141.44;5071705;28;19931;-67
2022/03/04 00:21:40;;;;;;;;;;;;;;;4.78;41.45;102149.72;5072975;28;20011;-67
2022/03/04 00:24:05;;;;;;;;;;;;;;;4.78;41.40;102158.63;5073118;28;20284;-67
2022/03/04 00:26:31;;;;;;;;;;;;;;;4.76;41.22;102159.84;5073210;28;20016;-68
2022/03/04 00:28:56;;;;;;;;;;;;;;;4.63;41.79;102159.72;5073638;28;19912;-67
2022/03/04 00:31:22;;;;;;;;;;;;;;;4.66;40.92;102153.94;5073312;28;19920;-67
2022/03/04 00:33:47;;;;;;;;;;;;;;;4.63;41.49;102165.09;5073477;28;20394;-68
2022/03/04 00:36:12;;;;;;;;;;;;;;;4.63;41.32;102162.41;5073201;28;19924;-67
2022/03/04 00:38:38;;;;;;;;;;;;;;;4.52;42.00;102158.38;5059665;28;20362;-67
2022/03/04 00:41:03;;;;;;;;;;;;;;;4.74;41.33;102162.72;5038763;28;20303;-66
2022/03/04 00:43:28;;;;;;;;;;;;;;;4.50;41.69;102165.81;5033602;28;19925;-67
2022/03/04 00:45:54;;;;;;;;;;;;;;;4.43;42.30;102164.91;5033332;28;19921;-66
2022/03/04 00:48:19;;;;;;;;;;;;;;;4.52;41.83;102155.69;5033246;28;19917;-68
2022/03/04 00:50:44;;;;;;;;;;;;;;;4.44;42.31;102156.66;5032845;28;19974;-66
2022/03/04 00:53:09;;;;;;;;;;;;;;;4.42;41.79;102152.50;5032779;28;19920;-67
2022/03/04 00:55:37;;;;;;;;;;;;;;;4.11;42.56;102163.53;5032846;28;20008;-67
2022/03/04 00:58:02;;;;;;;;;;;;;;;4.26;42.51;102164.31;5048212;28;19932;-66
2022/03/04 01:00:27;;;;;;;;;;;;;;;4.26;42.56;102160.81;5052597;28;19921;-66
2022/03/04 01:02:52;;;;;;;;;;;;;;;4.24;42.41;102158.31;5052713;28;19921;-67
2022/03/04 01:05:17;;;;;;;;;;;;;;;4.17;42.72;102165.47;5052387;28;20299;-67
2022/03/04 01:07:44;;;;;;;;;;;;;;;4.10;42.28;102169.94;5052813;28;19927;-67
2022/03/04 01:10:10;;;;;;;;;;;;;;;4.14;42.67;102173.09;5050390;28;19948;-66
2022/03/04 01:12:35;;;;;;;;;;;;;;;4.02;42.99;102177.25;5052476;28;19948;-66
2022/03/04 01:15:03;;;;;;;;;;;;;;;3.91;43.33;102175.88;5052241;28;19928;-66
2022/03/04 01:17:28;;;;;;;;;;;;;;;3.87;43.27;102179.94;5052374;28;19916;-67
2022/03/04 01:19:53;;;;;;;;;;;;;;;3.77;44.20;102173.22;5052587;28;20419;-67
2022/03/04 01:22:18;;;;;;;;;;;;;;;3.58;44.62;102174.63;5051489;28;19928;-68
2022/03/04 01:24:44;;;;;;;;;;;;;;;3.68;43.67;102176.00;5051255;28;19943;-67
2022/03/04 01:27:09;;;;;;;;;;;;;;;3.74;43.81;102174.44;5051406;28;19921;-66
2022/03/04 01:29:34;;;;;;;;;;;;;;;3.47;44.62;102178.59;5051529;28;19924;-67
2022/03/04 01:31:59;;;;;;;;;;;;;;;3.32;45.28;102171.56;5051659;28;19948;-66
2022/03/04 01:34:25;;;;;;;;;;;;;;;3.46;44.58;102170.72;5048652;28;19932;-67
2022/03/04 01:36:50;;;;;;;;;;;;;;;3.53;44.68;102158.25;5019181;28;19933;-67
2022/03/04 01:39:15;;;;;;;;;;;;;;;3.50;44.40;102166.66;5040138;28;19975;-67
2022/03/04 01:41:40;;;;;;;;;;;;;;;3.57;44.03;102156.88;5047116;28;19928;-67
2022/03/04 01:44:06;;;;;;;;;;;;;;;3.47;44.21;102159.81;5031997;28;19920;-68
2022/03/04 01:46:32;;;;;;;;;;;;;;;3.50;44.54;102163.97;5051638;28;19920;-67
2022/03/04 01:48:57;;;;;;;;;;;;;;;3.53;43.90;102158.25;5051717;28;19924;-66
2022/03/04 01:51:23;;;;;;;;;;;;;;;3.59;44.60;102154.84;5051677;28;19925;-67
2022/03/04 01:53:48;;;;;;;;;;;;;;;3.57;44.55;102151.50;5051213;28;19927;-66
2022/03/04 01:56:13;;;;;;;;;;;;;;;3.54;44.26;102150.00;5051428;28;19972;-67
2022/03/04 01:58:40;;;;;;;;;;;;;;;3.44;43.81;102152.16;5036588;28;19925;-67
2022/03/04 02:01:05;;;;;;;;;;;;;;;3.42;44.89;102150.66;5031786;28;20443;-67
2022/03/04 02:03:30;;;;;;;;;;;;;;;3.16;45.53;102161.84;5031802;28;19924;-67
2022/03/04 02:05:56;;;;;;;;;;;;;;;3.23;45.44;102159.28;5031756;28;19984;-67
2022/03/04 02:08:21;;;;;;;;;;;;;;;3.34;45.04;102156.94;5031900;28;19913;-67
2022/03/04 02:10:46;;;;;;;;;;;;;;;3.31;45.26;102153.81;5014409;28;19917;-67
2022/03/04 02:13:11;;;;;;;;;;;;;;;3.26;44.45;102162.41;5031765;28;19924;-68
2022/03/04 02:15:37;;;;;;;;;;;;;;;3.26;44.55;102159.72;5031771;28;20332;-68
2022/03/04 02:18:15;;;;;;;;;;;;;;;3.20;45.11;102160.47;5031831;28;19979;-67
2022/03/04 02:20:43;;;;;;;;;;;;;;;3.15;45.72;102162.88;5046952;28;19921;-67
2022/03/04 02:23:12;;;;;;;;;;;;;;;3.20;44.67;102159.66;5051605;28;19928;-68
2022/03/04 02:25:37;;;;;;;;;;;;;;;3.14;44.68;102155.81;5052273;28;19913;-67
2022/03/04 02:28:02;;;;;;;;;;;;;;;3.08;44.96;102156.56;5051505;28;20388;-67
2022/03/04 02:30:28;;;;;;;;;;;;;;;3.03;44.27;102164.34;5050347;28;20004;-67
2022/03/04 02:32:53;;;;;;;;;;;;;;;3.01;45.36;102158.31;5031437;28;19921;-67
2022/03/04 02:35:18;;;;;;;;;;;;;;;2.96;44.73;102160.72;5030978;28;19928;-69
2022/03/04 02:37:43;;;;;;;;;;;;;;;2.93;44.54;102150.34;5050346;28;20000;-67
2022/03/04 02:40:09;;;;;;;;;;;;;;;3.01;44.94;102149.44;5051335;28;19921;-68
2022/03/04 02:42:34;;;;;;;;;;;;;;;2.84;45.59;102146.91;5051295;28;19989;-69
2022/03/04 02:44:59;;;;;;;;;;;;;;;2.85;45.44;102151.28;5049792;28;20425;-66
2022/03/04 02:47:25;;;;;;;;;;;;;;;2.64;46.32;102153.81;5051610;28;19916;-67
2022/03/04 02:49:50;;;;;;;;;;;;;;;2.76;45.84;102149.69;5046752;28;19996;-69
2022/03/04 02:52:15;;;;;;;;;;;;;;;2.62;45.66;102144.28;5031343;28;19929;-67
2022/03/04 02:54:40;;;;;;;;;;;;;;;2.73;45.94;102155.41;5031408;28;19997;-67
2022/03/04 02:57:06;;;;;;;;;;;;;;;2.58;45.42;102151.84;5033582;28;19975;-67
2022/03/04 02:59:31;;;;;;;;;;;;;;;2.80;45.41;102161.69;5051460;28;19925;-68
2022/03/04 03:01:56;;;;;;;;;;;;;;;2.68;46.07;102165.00;5050917;28;19909;-68
2022/03/04 03:04:21;;;;;;;;;;;;;;;2.75;46.14;102155.19;5051153;28;20002;-67
2022/03/04 03:06:47;;;;;;;;;;;;;;;2.63;45.59;102162.84;5054900;28;19921;-67
2022/03/04 03:09:12;;;;;;;;;;;;;;;2.56;44.88;102155.72;5054958;28;20332;-67
2022/03/04 03:11:37;;;;;;;;;;;;;;;2.57;45.40;102162.75;5054736;28;19929;-69
2022/03/04 03:14:02;;;;;;;;;;;;;;;2.51;46.00;102163.47;5055316;28;19924;-67
2022/03/04 03:16:28;;;;;;;;;;;;;;;2.30;46.02;102165.94;5053352;28;19924;-67
2022/03/04 03:18:53;;;;;;;;;;;;;;;2.54;45.32;102171.97;5054824;28;20261;-67
2022/03/04 03:21:18;;;;;;;;;;;;;;;2.47;46.25;102167.50;5054451;28;19943;-68
2022/03/04 03:23:45;;;;;;;;;;;;;;;2.47;46.37;102168.31;5054392;28;19924;-69
2022/03/04 03:26:10;;;;;;;;;;;;;;;2.41;46.60;102163.69;5054403;28;19972;-67
2022/03/04 03:28:35;;;;;;;;;;;;;;;2.42;45.90;102160.00;5054918;28;20434;-67
2022/03/04 03:31:02;;;;;;;;;;;;;;;2.32;46.19;102163.94;5053697;28;19921;-68
2022/03/04 03:33:28;;;;;;;;;;;;;;;2.32;45.82;102161.25;5054294;28;19921;-67
2022/03/04 03:35:54;;;;;;;;;;;;;;;2.37;45.87;102170.41;5054141;28;19928;-67
2022/03/04 03:38:20;;;;;;;;;;;;;;;2.31;46.51;102168.47;5069647;28;19913;-68
2022/03/04 03:40:45;;;;;;;;;;;;;;;2.43;45.85;102163.53;5054756;28;19913;-68
2022/03/04 03:43:11;;;;;;;;;;;;;;;2.18;46.35;102173.53;5053963;28;19921;-67
2022/03/04 03:45:37;;;;;;;;;;;;;;;2.27;46.21;102182.38;5053950;28;19928;-68
2022/03/04 03:48:02;;;;;;;;;;;;;;;2.39;45.34;102180.97;5059764;28;20025;-67
2022/03/04 03:50:27;;;;;;;;;;;;;;;2.32;46.26;102188.03;5073947;28;19970;-68
2022/03/04 03:52:53;;;;;;;;;;;;;;;2.11;46.48;102179.75;5064295;28;19970;-67
2022/03/04 03:55:18;;;;;;;;;;;;;;;2.22;46.16;102179.34;5053793;28;19921;-68
2022/03/04 03:57:43;;;;;;;;;;;;;;;2.43;45.48;102185.78;5053126;28;19928;-69
2022/03/04 04:00:09;;;;;;;;;;;;;;;2.36;45.29;102184.81;5053888;28;19921;-67
2022/03/04 04:02:34;;;;;;;;;;;;;;;2.20;45.89;102184.91;5053849;28;19949;-67
2022/03/04 04:04:59;;;;;;;;;;;;;;;2.11;46.50;102185.13;5054171;28;19913;-68
2022/03/04 04:07:25;;;;;;;;;;;;;;;2.07;46.34;102183.81;5052053;28;19986;-68
2022/03/04 04:09:50;;;;;;;;;;;;;;;2.16;46.39;102190.75;5073665;28;20237;-68
2022/03/04 04:12:15;;;;;;;;;;;;;;;2.23;46.16;102186.38;5073726;28;20263;-68
2022/03/04 04:14:40;;;;;;;;;;;;;;;2.09;46.21;102187.13;5073617;28;20295;-69
2022/03/04 04:17:06;;;;;;;;;;;;;;;2.00;46.35;102189.00;5063658;28;19924;-69
2022/03/04 04:19:32;;;;;;;;;;;;;;;2.06;46.54;102190.19;5053442;28;19924;-68
2022/03/04 04:21:57;;;;;;;;;;;;;;;2.07;46.28;102192.69;5053538;28;19928;-68
2022/03/04 04:24:22;;;;;;;;;;;;;;;2.24;45.61;102194.25;5053254;28;19917;-70
2022/03/04 04:26:47;;;;;;;;;;;;;;;2.06;45.71;102187.50;5053112;28;19925;-67
2022/03/04 04:29:13;;;;;;;;;;;;;;;1.89;46.23;102192.94;5053533;28;19917;-68
2022/03/04 04:31:38;;;;;;;;;;;;;;;1.86;46.30;102195.94;5053740;28;19917;-68
2022/03/04 04:34:03;;;;;;;;;;;;;;;1.90;45.92;102193.78;5053182;28;20451;-69
2022/03/04 04:36:29;;;;;;;;;;;;;;;1.83;45.82;102190.97;5053067;28;20015;-69
2022/03/04 04:38:54;;;;;;;;;;;;;;;1.88;46.11;102188.56;5052986;28;19921;-68
2022/03/04 04:41:20;;;;;;;;;;;;;;;1.79;46.12;102186.13;5052961;28;20560;-67
2022/03/04 04:43:45;;;;;;;;;;;;;;;1.75;46.97;102182.97;5064154;28;20356;-69
2022/03/04 04:46:10;;;;;;;;;;;;;;;1.75;46.46;102185.63;5055544;28;20357;-69
2022/03/04 04:48:36;;;;;;;;;;;;;;;1.59;46.60;102183.03;5052985;28;20003;-69
2022/03/04 04:51:02;;;;;;;;;;;;;;;1.71;46.80;102187.00;5052937;28;20325;-68
2022/03/04 04:53:28;;;;;;;;;;;;;;;1.68;46.47;102191.84;5052829;28;19917;-69
2022/03/04 04:55:53;;;;;;;;;;;;;;;1.75;46.55;102195.50;5053215;28;19928;-68
2022/03/04 04:58:19;;;;;;;;;;;;;;;1.71;46.67;102204.88;5052461;28;20054;-69
2022/03/04 05:00:45;;;;;;;;;;;;;;;1.39;47.28;102207.69;5052307;28;20293;-69
2022/03/04 05:03:11;;;;;;;;;;;;;;;1.26;48.31;102202.00;5051514;28;19964;-68
2022/03/04 05:05:36;;;;;;;;;;;;;;;1.25;48.40;102206.53;5052368;28;20306;-69
2022/03/04 05:08:02;;;;;;;;;;;;;;;1.50;47.88;102209.97;5052837;28;19924;-70
2022/03/04 05:10:28;;;;;;;;;;;;;;;1.40;48.02;102204.81;5052151;28;19928;-70
2022/03/04 05:12:53;;;;;;;;;;;;;;;1.60;47.36;102206.09;5052137;28;20074;-68
2022/03/04 05:15:18;;;;;;;;;;;;;;;1.44;47.55;102197.28;5051376;28;20312;-68
2022/03/04 05:17:44;;;;;;;;;;;;;;;1.42;48.16;102202.81;5052139;28;19920;-68
2022/03/04 05:20:10;;;;;;;;;;;;;;;1.56;47.51;102203.94;5050256;28;19924;-69
2022/03/04 05:22:35;;;;;;;;;;;;;;;1.69;46.92;102205.06;5040637;28;19916;-69
2022/03/04 05:25:00;;;;;;;;;;;;;;;1.34;48.00;102208.19;5051798;28;19952;-69
2022/03/04 05:27:26;;;;;;;;;;;;;;;1.43;48.00;102206.31;5051464;28;19927;-69
2022/03/04 05:29:51;;;;;;;;;;;;;;;1.02;49.05;102205.53;5052260;28;20369;-71
2022/03/04 05:32:16;;;;;;;;;;;;;;;1.06;48.60;102204.19;5051167;28;19917;-68
2022/03/04 05:34:42;;;;;;;;;;;;;;;1.53;47.32;102199.75;5042418;28;19967;-69
2022/03/04 05:37:07;;;;;;;;;;;;;;;1.32;48.23;102202.16;5031322;28;19979;-69
2022/03/04 05:39:32;;;;;;;;;;;;;;;1.43;47.83;102209.81;5031383;28;19955;-69
2022/03/04 05:41:58;;;;;;;;;;;;;;;1.41;47.70;102206.47;5031308;28;19921;-70
2022/03/04 05:44:23;;;;;;;;;;;;;;;1.44;47.70;102211.50;5062115;28;20320;-68
2022/03/04 05:46:48;;;;;;;;;;;;;;;1.45;47.46;102207.00;5071832;28;19979;-72
2022/03/04 05:49:13;;;;;;;;;;;;;;;1.46;47.08;102209.50;5071340;28;19970;-69
2022/03/04 05:51:39;;;;;;;;;;;;;;;1.36;48.04;102216.03;5071441;28;19928;-70
2022/03/04 05:54:04;;;;;;;;;;;;;;;1.63;46.92;102215.59;5086272;28;20053;-69
2022/03/04 05:56:29;;;;;;;;;;;;;;;1.17;48.00;102219.91;5061327;28;19929;-69
2022/03/04 05:58:54;;;;;;;;;;;;;;;1.06;47.86;102228.25;5051539;28;19935;-69
2022/03/04 06:01:20;;;;;;;;;;;;;;;1.46;47.16;102228.22;5051980;28;20010;-69
2022/03/04 06:03:45;;;;;;;;;;;;;;;1.51;46.61;102228.50;5051583;28;19921;-68
2022/03/04 06:06:14;;;;;;;;;;;;;;;1.42;46.67;102228.72;5051789;28;20404;-70
2022/03/04 06:08:39;;;;;;;;;;;;;;;1.51;46.52;102222.34;5052884;28;20361;-68
2022/03/04 06:11:08;;;;;;;;;;;;;;;1.36;47.20;102230.22;5071825;28;19971;-69
2022/03/04 06:13:34;;;;;;;;;;;;;;;1.36;47.16;102226.72;5071404;28;19928;-70
2022/03/04 06:15:59;;;;;;;;;;;;;;;1.36;46.58;102232.91;5065922;28;19929;-69
2022/03/04 06:18:24;;;;;;;;;;;;;;;1.43;46.67;102227.72;5050489;28;19970;-70
2022/03/04 06:20:49;;;;;;;;;;;;;;;1.55;46.33;102237.88;5050846;28;19928;-69
2022/03/04 06:23:15;;;;;;;;;;;;;;;1.25;46.93;102237.78;5050817;28;19923;-70
2022/03/04 06:25:40;;;;;;;;;;;;;;;1.37;46.77;102239.09;5051256;28;20392;-68
2022/03/04 06:28:05;;;;;;;;;;;;;;;1.58;46.37;102237.53;5051124;28;19916;-69
2022/03/04 06:30:32;;;;;;;;;;;;;;;1.39;46.83;102237.09;5051057;28;19921;-68
2022/03/04 06:35:42;;;;;;;;;;;;;;;1.54;46.77;102246.91;5050948;28;19986;-68
2022/03/04 06:38:08;;;;;;;;;;;;;;;0.89;48.38;102251.50;5052093;28;19944;-69
2022/03/04 06:40:33;;;;;;;;;;;;;;;1.41;46.80;102259.97;5052959;28;20407;-69
2022/03/04 06:42:58;;;;;;;;;;;;;;;1.33;47.55;102259.97;5055309;28;20357;-69
2022/03/04 06:45:24;;;;;;;;;;;;;;;1.52;46.86;102251.59;5054950;28;19946;-69
2022/03/04 06:47:49;;;;;;;;;;;;;;;1.36;47.62;102256.13;5054968;28;20000;-69
2022/03/04 06:50:14;;;;;;;;;;;;;;;1.13;48.39;102256.00;5053631;28;20058;-69
2022/03/04 06:52:39;;;;;;;;;;;;;;;0.94;48.80;102259.00;5054938;28;20407;-68
2022/03/04 06:55:05;;;;;;;;;;;;;;;1.16;48.55;102254.81;5054913;28;19928;-69
2022/03/04 06:57:30;;;;;;;;;;;;;;;1.09;48.43;102252.00;5036636;28;19925;-70
2022/03/04 06:59:55;;;;;;;;;;;;;;;1.11;48.17;102252.66;5034828;28;20064;-69
2022/03/04 07:02:21;;;;;;;;;;;;;;;0.80;49.59;102257.81;5034853;28;19924;-69
2022/03/04 07:04:47;;;;;;;;;;;;;;;0.89;49.42;102264.00;5045817;28;19972;-70
2022/03/04 07:07:12;;;;;;;;;;;;;;;0.94;49.08;102250.97;5054753;28;20371;-70
2022/03/04 07:09:37;;;;;;;;;;;;;;;0.88;49.18;102256.97;5054356;28;19921;-69
2022/03/04 07:12:03;;;;;;;;;;;;;;;1.33;48.60;102264.50;5054001;28;19921;-70
2022/03/04 07:14:28;;;;;;;;;;;;;;;1.25;48.90;102278.72;5054272;28;19928;-70
2022/03/04 07:16:53;;;;;;;;;;;;;;;1.47;48.19;102272.66;5054700;28;19956;-70
2022/03/04 07:19:18;;;;;;;;;;;;;;;1.65;47.90;102272.44;5053958;28;19916;-70
2022/03/04 07:21:44;;;;;;;;;;;;;;;1.65;47.85;102281.31;5054522;28;19920;-69
2022/03/04 07:24:09;;;;;;;;;;;;;;;1.60;48.07;102272.97;5054205;28;19944;-69
2022/03/04 07:26:34;;;;;;;;;;;;;;;1.96;46.90;102278.69;5054287;28;19928;-69
2022/03/04 07:28:59;;;;;;;;;;;;;;;1.54;48.33;102281.69;5054799;28;20353;-69
2022/03/04 07:31:25;;;;;;;;;;;;;;;1.34;48.67;102282.19;5053915;28;20423;-68
2022/03/04 07:33:50;;;;;;;;;;;;;;;1.56;48.56;102284.19;5054291;28;19947;-69
2022/03/04 07:36:15;;;;;;;;;;;;;;;1.46;48.87;102292.38;5054076;28;20391;-69
2022/03/04 07:38:40;;;;;;;;;;;;;;;1.13;49.72;102289.91;5053841;28;20062;-70
2022/03/04 07:41:06;;;;;;;;;;;;;;;1.32;49.19;102297.56;5054397;28;19920;-70
2022/03/04 07:43:31;;;;;;;;;;;;;;;1.13;49.64;102298.78;5054012;28;19916;-70
2022/03/04 07:45:56;;;;;;;;;;;;;;;1.27;49.42;102306.13;5054031;28;19928;-69
2022/03/04 07:48:21;;;;;;;;;;;;;;;1.64;48.80;102305.56;5054116;28;19924;-68
2022/03/04 07:50:47;;;;;;;;;;;;;;;1.71;48.61;102314.56;5053381;28;19943;-70
2022/03/04 07:53:12;;;;;;;;;;;;;;;1.20;49.32;102314.94;5053842;28;20526;-68
2022/03/04 07:55:37;;;;;;;;;;;;;;;1.13;50.27;102322.81;5051899;28;20024;-68
2022/03/04 07:58:03;;;;;;;;;;;;;;;1.17;49.92;102316.16;5053801;28;20331;-70
2022/03/04 08:00:28;;;;;;;;;;;;;;;1.14;49.91;102319.13;5053605;28;19932;-70
2022/03/04 08:02:54;;;;;;;;;;;;;;;1.40;49.17;102321.63;5052340;28;20285;-70
2022/03/04 08:05:20;;;;;;;;;;;;;;;1.27;50.21;102314.16;5053547;28;19921;-68
2022/03/04 08:07:45;;;;;;;;;;;;;;;1.15;49.74;102323.50;5052771;28;19917;-69
2022/03/04 08:10:11;;;;;;;;;;;;;;;1.38;49.44;102315.63;5053623;28;19917;-69
2022/03/04 08:12:37;;;;;;;;;;;;;;;2.02;48.13;102320.03;5052447;28;20360;-68
2022/03/04 08:15:03;;;;;;;;;;;;;;;1.18;50.24;102322.31;5053077;28;20088;-71
2022/03/04 08:17:30;;;;;;;;;;;;;;;1.66;49.33;102312.44;5053302;28;19948;-69
2022/03/04 08:19:55;;;;;;;;;;;;;;;1.58;49.09;102315.13;5053606;28;19917;-69
2022/03/04 08:22:20;;;;;;;;;;;;;;;1.39;49.46;102318.13;5053158;28;19921;-68
2022/03/04 08:24:45;;;;;;;;;;;;;;;1.58;49.12;102316.94;5053534;28;19927;-69
2022/03/04 08:27:11;;;;;;;;;;;;;;;1.15;50.19;102317.31;5035075;28;19921;-69
2022/03/04 08:29:36;;;;;;;;;;;;;;;1.58;49.49;102325.81;5053050;28;19925;-68
2022/03/04 08:32:01;;;;;;;;;;;;;;;1.30;50.32;102320.97;5053323;28;19924;-69
2022/03/04 08:34:27;;;;;;;;;;;;;;;2.06;48.22;102335.56;5052693;28;19924;-68
2022/03/04 08:36:53;;;;;;;;;;;;;;;1.71;48.96;102330.63;5052568;28;19928;-69
2022/03/04 08:39:18;;;;;;;;;;;;;;;2.62;47.43;102335.34;5053086;28;19923;-68
2022/03/04 08:41:43;;;;;;;;;;;;;;;2.98;45.93;102332.97;5052857;28;20367;-68
2022/03/04 08:44:08;;;;;;;;;;;;;;;2.91;46.56;102334.66;5053232;28;19913;-68
2022/03/04 08:46:35;;;;;;;;;;;;;;;2.81;45.99;102334.06;5053085;28;20305;-68
2022/03/04 08:49:01;;;;;;;;;;;;;;;2.75;46.36;102340.97;5052627;28;20028;-69
2022/03/04 08:51:27;;;;;;;;;;;;;;;2.92;46.03;102336.34;5052726;28;20027;-67
2022/03/04 08:53:53;;;;;;;;;;;;;;;2.97;46.04;102347.38;5052819;28;19944;-68
2022/03/04 08:56:18;;;;;;;;;;;;;;;3.13;46.13;102341.88;5052212;28;19921;-69
2022/03/04 08:58:45;;;;;;;;;;;;;;;3.04;45.87;102336.78;5052513;28;20404;-68
2022/03/04 09:01:11;;;;;;;;;;;;;;;2.83;46.67;102342.75;5052255;28;19968;-67
2022/03/04 09:03:36;;;;;;;;;;;;;;;3.00;46.21;102344.34;5051870;28;20007;-67
2022/03/04 09:06:01;;;;;;;;;;;;;;;2.84;46.95;102344.44;5052695;28;19925;-68
2022/03/04 09:08:26;;;;;;;;;;;;;;;3.11;46.29;102351.13;5052413;28;20260;-69
2022/03/04 09:10:52;;;;;;;;;;;;;;;3.58;45.74;102341.84;5052763;28;19913;-68
2022/03/04 09:13:17;;;;;;;;;;;;;;;3.49;45.29;102344.78;5052444;28;19923;-67
2022/03/04 09:15:42;;;;;;;;;;;;;;;3.34;45.61;102339.38;5052532;28;19929;-67
2022/03/04 09:18:08;;;;;;;;;;;;;;;3.20;46.39;102337.47;5052598;28;19917;-67
2022/03/04 09:20:33;;;;;;;;;;;;;;;3.59;45.32;102334.63;5052242;28;20320;-67
2022/03/04 09:22:58;;;;;;;;;;;;;;;3.42;45.60;102338.47;5052868;28;19961;-66
2022/03/04 09:25:26;;;;;;;;;;;;;;;3.71;45.24;102330.47;5052111;28;19924;-67
2022/03/04 09:27:52;;;;;;;;;;;;;;;2.57;48.20;102336.91;5052110;28;19917;-67
2022/03/04 09:30:17;;;;;;;;;;;;;;;4.24;44.46;102332.13;5052092;28;19927;-68
2022/03/04 09:32:43;;;;;;;;;;;;;;;4.49;43.66;102331.63;5052232;28;19931;-67
2022/03/04 09:35:08;;;;;;;;;;;;;;;3.92;44.79;102335.97;5052631;28;20268;-68
2022/03/04 09:37:34;;;;;;;;;;;;;;;3.94;44.84;102335.78;5052013;28;20353;-68
2022/03/04 09:39:59;;;;;;;;;;;;;;;3.77;45.43;102324.38;5052003;28;19921;-67
2022/03/04 09:42:24;;;;;;;;;;;;;;;3.99;44.73;102328.84;5051961;28;19921;-68
2022/03/04 09:44:50;;;;;;;;;;;;;;;4.60;43.51;102333.81;5046054;28;19921;-67
2022/03/04 09:47:19;;;;;;;;;;;;;;;4.21;43.95;102322.56;5046869;28;19917;-68
2022/03/04 09:49:45;;;;;;;;;;;;;;;4.09;44.66;102334.75;5032366;28;20000;-67
2022/03/04 09:52:11;;;;;;;;;;;;;;;4.59;44.04;102326.75;5032049;28;19921;-68
2022/03/04 09:54:36;;;;;;;;;;;;;;;4.05;45.25;102332.63;5032097;28;19917;-66
2022/03/04 09:57:01;;;;;;;;;;;;;;;4.73;43.39;102324.25;5045251;28;20012;-67
2022/03/04 09:59:27;;;;;;;;;;;;;;;4.63;43.11;102319.16;5051453;28;19927;-67
2022/03/04 10:01:52;;;;;;;;;;;;;;;4.17;44.56;102323.97;5052340;28;19923;-65
2022/03/04 10:04:17;;;;;;;;;;;;;;;5.11;42.76;102315.72;5033512;28;19917;-66
2022/03/04 10:06:47;;;;;;;;;;;;;;;4.81;42.79;102313.38;5051638;28;19925;-67
2022/03/04 10:09:12;;;;;;;;;;;;;;;5.35;42.41;102323.41;5051600;28;19952;-66
2022/03/04 10:11:38;;;;;;;;;;;;;;;4.51;44.26;102315.31;5051464;28;19967;-65
2022/03/04 10:14:08;;;;;;;;;;;;;;;4.69;43.54;102312.19;5053359;28;20085;-67
2022/03/04 10:16:35;;;;;;;;;;;;;;;5.22;42.54;102306.31;5055596;28;19932;-68
2022/03/04 10:19:06;;;;;;;;;;;;;;;5.91;41.50;102310.78;5055653;28;20392;-66
2022/03/04 10:21:44;;;;;;;;;;;;;;;4.96;42.83;102316.81;5055615;28;19920;-67
2022/03/04 10:24:10;;;;;;;;;;;;;;;4.98;42.95;102307.56;5055625;28;19920;-67
2022/03/04 10:26:35;;;;;;;;;;;;;;;5.29;41.89;102309.91;5055498;28;20115;-68
2022/03/04 10:29:04;;;;;;;;;;;;;;;5.66;41.49;102303.38;5056096;28;19919;-66
2022/03/04 10:31:29;;;;;;;;;;;;;;;4.83;42.69;102305.94;5055487;28;20003;-67
2022/03/04 10:34:05;;;;;;;;;;;;;;;4.86;43.15;102316.31;5037382;28;20468;-67
2022/03/04 10:36:32;;;;;;;;;;;;;;;5.61;41.45;102308.50;5054952;28;20437;-67
2022/03/04 10:39:06;;;;;;;;;;;;;;;6.17;40.47;102305.56;5054966;28;19924;-67
2022/03/04 10:41:35;;;;;;;;;;;;;;;5.56;41.62;102308.25;5052987;28;20368;-67
2022/03/04 10:44:01;;;;;;;;;;;;;;;5.71;41.63;102306.31;5055394;28;19917;-67
2022/03/04 10:46:46;;;;;;;;;;;;;;;6.84;39.47;102302.91;5054433;28;19928;-66
2022/03/04 10:49:22;;;;;;;;;;;;;;;6.43;39.80;102302.16;5054847;28;19924;-66
2022/03/04 10:51:47;;;;;;;;;;;;;;;7.50;37.78;102295.72;5055132;28;19925;-67
2022/03/04 10:54:13;;;;;;;;;;;;;;;7.38;37.53;102293.84;5055106;28;19924;-67
2022/03/04 10:56:49;;;;;;;;;;;;;;;7.00;38.43;102297.13;5054629;28;19932;-67
2022/03/04 10:59:14;;;;;;;;;;;;;;;6.65;39.00;102292.91;5054451;28;20373;-66
2022/03/04 11:01:46;;;;;;;;;;;;;;;6.76;38.78;102297.69;5055148;28;19916;-67
2022/03/04 11:04:11;;;;;;;;;;;;;;;6.59;39.50;102288.31;5052299;28;19917;-68
2022/03/04 11:06:38;;;;;;;;;;;;;;;7.94;37.30;102298.56;5054899;28;19928;-66
2022/03/04 11:09:04;;;;;;;;;;;;;;;7.76;36.71;102292.97;5054400;28;20307;-66
2022/03/04 11:11:30;;;;;;;;;;;;;;;7.61;36.61;102291.53;5054304;28;19924;-69
2022/03/04 11:13:57;;;;;;;;;;;;;;;7.63;37.01;102289.47;5054994;28;19912;-69
2022/03/04 11:16:23;;;;;;;;;;;;;;;6.99;37.83;102291.94;5054245;28;19921;-68
2022/03/04 11:18:50;;;;;;;;;;;;;;;7.86;36.81;102289.84;5054096;28;19920;-68
2022/03/04 11:21:15;;;;;;;;;;;;;;;7.15;37.29;102284.28;5054289;28;19921;-67
2022/03/04 11:23:45;;;;;;;;;;;;;;;7.39;37.75;102285.53;5054395;28;19917;-68
2022/03/04 11:26:16;;;;;;;;;;;;;;;7.41;37.03;102280.75;5053217;28;19920;-69
2022/03/04 11:28:43;;;;;;;;;;;;;;;8.06;35.99;102274.41;5054670;28;19917;-67
2022/03/04 11:31:09;;;;;;;;;;;;;;;8.30;35.96;102281.84;5053987;28;19925;-70
2022/03/04 11:33:46;;;;;;;;;;;;;;;8.31;35.78;102278.06;5052053;28;19960;-69
2022/03/04 11:36:15;;;;;;;;;;;;;;;8.21;35.27;102279.56;5052493;28;20369;-67
2022/03/04 11:38:43;;;;;;;;;;;;;;;9.22;34.01;102276.69;5053772;28;19979;-68
2022/03/04 11:41:09;;;;;;;;;;;;;;;8.75;33.48;102274.50;5054027;28;19920;-69
2022/03/04 11:43:44;;;;;;;;;;;;;;;8.27;34.97;102281.41;5054193;28;19913;-68
2022/03/04 11:46:17;;;;;;;;;;;;;;;8.02;36.18;102275.88;5034100;28;19983;-68
2022/03/04 11:48:42;;;;;;;;;;;;;;;8.61;34.82;102275.63;5034275;28;19971;-66
2022/03/04 11:51:14;;;;;;;;;;;;;;;8.94;34.25;102270.84;5035173;28;20388;-69
2022/03/04 11:53:39;;;;;;;;;;;;;;;8.09;35.46;102274.78;5053794;28;19921;-69
2022/03/04 11:56:10;;;;;;;;;;;;;;;9.63;33.41;102273.41;5053572;28;19920;-68
2022/03/04 11:58:54;;;;;;;;;;;;;;;9.50;33.58;102262.72;5053899;28;19928;-66
2022/03/04 12:01:25;;;;;;;;;;;;;;;8.93;34.10;102267.34;5052650;28;19970;-67
2022/03/04 12:04:09;;;;;;;;;;;;;;;9.27;33.18;102262.47;5050132;28;19921;-67
2022/03/04 12:06:35;;;;;;;;;;;;;;;9.11;33.01;102260.31;5051786;28;19971;-67
2022/03/04 12:09:19;;;;;;;;;;;;;;;9.04;33.02;102256.81;5053334;28;20412;-68
2022/03/04 12:12:03;;;;;;;;;;;;;;;8.19;35.45;102263.53;5053043;28;19924;-67
2022/03/04 12:14:28;;;;;;;;;;;;;;;9.58;33.08;102249.72;5050960;28;19925;-69
2022/03/04 12:16:56;;;;;;;;;;;;;;;8.75;33.97;102253.72;5053626;28;19920;-69
2022/03/04 12:19:28;;;;;;;;;;;;;;;9.26;32.80;102253.53;5053186;28;19925;-68
2022/03/04 12:21:55;;;;;;;;;;;;;;;9.04;33.22;102241.41;5053080;28;19921;-68
2022/03/04 12:24:27;;;;;;;;;;;;;;;9.46;32.56;102247.97;5053029;28;19952;-68
2022/03/04 12:26:52;;;;;;;;;;;;;;;9.07;33.32;102243.69;5052780;28;19921;-69
2022/03/04 12:29:18;;;;;;;;;;;;;;;9.84;32.02;102246.72;5051622;28;20392;-69
2022/03/04 12:31:44;;;;;;;;;;;;;;;8.99;33.41;102249.38;5053223;28;19943;-69
2022/03/04 12:34:22;;;;;;;;;;;;;;;8.91;33.23;102253.19;5052765;28;19927;-67
2022/03/04 12:36:49;;;;;;;;;;;;;;;9.32;32.35;102249.09;5050261;28;20439;-67
2022/03/04 12:39:18;;;;;;;;;;;;;;;9.52;31.50;102252.47;5052704;28;20004;-68
2022/03/04 12:41:43;;;;;;;;;;;;;;;8.73;32.56;102246.84;5052774;28;19931;-68
2022/03/04 12:44:08;;;;;;;;;;;;;;;9.63;31.12;102244.44;5053135;28;19999;-68
2022/03/04 12:46:35;;;;;;;;;;;;;;;9.41;31.92;102240.44;5052867;28;19928;-68